createdAt,value
2023-03-22T00:01:22.982Z,10.48
2023-03-22T00:03:26.324Z,10.44
2023-03-22T00:05:30.086Z,10.43
2023-03-22T00:07:31.743Z,10.41
2023-03-22T00:09:33.556Z,10.39
2023-03-22T00:11:35.354Z,10.39
2023-03-22T00:13:37.619Z,10.39
2023-03-22T00:15:39.973Z,10.38
2023-03-22T00:17:41.637Z,10.37
2023-03-22T00:19:43.434Z,10.37
2023-03-22T00:21:46.522Z,10.35
2023-03-22T00:23:48.472Z,10.34
2023-03-22T00:25:50.062Z,10.33
2023-03-22T00:27:52.619Z,10.32
2023-03-22T00:29:54.198Z,10.31
2023-03-22T00:31:56.081Z,10.28
2023-03-22T00:33:58.213Z,10.27
2023-03-22T00:36:02.602Z,10.24
2023-03-22T00:38:06.059Z,10.22
2023-03-22T00:40:11.164Z,10.21
2023-03-22T00:42:12.882Z,10.19
2023-03-22T00:44:15.479Z,10.17
2023-03-22T00:46:19.300Z,10.16
2023-03-22T00:48:24.999Z,10.15
2023-03-22T00:50:27.571Z,10.13
2023-03-22T00:52:29.419Z,10.12
2023-03-22T00:54:32.626Z,10.10
2023-03-22T00:56:34.280Z,10.09
2023-03-22T00:58:39.081Z,10.07
2023-03-22T01:00:41.028Z,10.05
2023-03-22T01:02:43.507Z,10.04
2023-03-22T01:04:45.326Z,10.04
2023-03-22T01:06:47.211Z,10.03
2023-03-22T01:08:49.319Z,10.02
2023-03-22T01:10:52.692Z,10.01
2023-03-22T01:12:56.726Z,10.01
2023-03-22T01:14:58.306Z,10.00
2023-03-22T01:17:00.249Z,10.00
2023-03-22T01:19:02.118Z,10.00
2023-03-22T01:21:04.599Z,9.99
2023-03-22T01:23:06.670Z,10.00
2023-03-22T01:25:09.261Z,9.99
2023-03-22T01:27:12.847Z,9.99
2023-03-22T01:29:14.499Z,9.99
2023-03-22T01:31:16.583Z,9.98
2023-03-22T01:33:18.917Z,9.99
2023-03-22T01:35:20.785Z,10.00
2023-03-22T01:37:22.604Z,9.99
2023-03-22T01:39:24.437Z,9.99
2023-03-22T01:41:26.317Z,9.99
2023-03-22T01:43:29.475Z,9.99
2023-03-22T01:45:38.709Z,10.01
2023-03-22T01:47:44.241Z,10.01
2023-03-22T01:49:46.180Z,10.01
2023-03-22T01:51:51.351Z,10.01
2023-03-22T01:53:56.447Z,10.01
2023-03-22T01:55:58.807Z,10.02
2023-03-22T01:58:01.658Z,10.03
2023-03-22T02:00:07.956Z,10.03
2023-03-22T02:02:10.586Z,10.03
2023-03-22T02:04:16.754Z,10.05
2023-03-22T02:06:20.055Z,10.05
2023-03-22T02:08:22.105Z,10.06
2023-03-22T02:10:27.556Z,10.08
2023-03-22T02:12:39.213Z,10.08
2023-03-22T02:14:56.321Z,10.08
2023-03-22T02:17:15.320Z,10.12
2023-03-22T02:19:47.717Z,10.13
2023-03-22T02:22:17.405Z,10.14
2023-03-22T02:24:45.381Z,10.14
2023-03-22T02:27:30.412Z,10.16
2023-03-22T02:29:39.977Z,10.14
2023-03-22T02:32:04.313Z,10.15
2023-03-22T02:34:32.966Z,10.16
2023-03-22T02:36:53.961Z,10.15
2023-03-22T02:39:19.490Z,10.17
2023-03-22T02:41:35.661Z,10.15
2023-03-22T02:43:46.612Z,10.14
2023-03-22T02:45:54.410Z,10.14
2023-03-22T02:48:02.994Z,10.13
2023-03-22T02:50:11.740Z,10.13
2023-03-22T02:52:20.105Z,10.14
2023-03-22T02:54:29.172Z,10.13
2023-03-22T02:56:35.328Z,10.13
2023-03-22T02:58:41.349Z,10.11
2023-03-22T03:00:45.041Z,10.11
2023-03-22T03:02:50.483Z,10.10
2023-03-22T03:04:55.707Z,10.10
2023-03-22T03:07:02.942Z,10.10
2023-03-22T03:09:05.269Z,10.09
2023-03-22T03:11:08.528Z,10.10
2023-03-22T03:13:12.482Z,10.09
2023-03-22T03:15:18.142Z,10.06
2023-03-22T03:17:34.059Z,10.08
2023-03-22T03:19:41.625Z,10.06
2023-03-22T03:21:51.058Z,10.05
2023-03-22T03:24:03.035Z,10.05
2023-03-22T03:26:14.325Z,10.05
2023-03-22T03:28:25.565Z,10.04
2023-03-22T03:30:34.151Z,10.02
2023-03-22T03:32:42.903Z,10.01
2023-03-22T03:34:49.024Z,10.02
2023-03-22T03:36:56.723Z,10.01
2023-03-22T03:39:00.342Z,10.01
2023-03-22T03:41:05.522Z,10.02
2023-03-22T03:43:10.182Z,10.01
2023-03-22T03:45:14.764Z,10.01
2023-03-22T03:47:16.933Z,10.01
2023-03-22T03:49:22.212Z,10.01
2023-03-22T03:51:24.280Z,10.02
2023-03-22T03:53:25.899Z,10.02
2023-03-22T03:55:28.927Z,10.02
2023-03-22T03:57:30.447Z,10.02
2023-03-22T03:59:33.867Z,10.02
2023-03-22T04:01:35.592Z,10.03
2023-03-22T04:03:37.907Z,10.02
2023-03-22T04:05:40.190Z,10.03
2023-03-22T04:07:41.812Z,10.02
2023-03-22T04:09:43.495Z,10.02
2023-03-22T04:11:45.068Z,10.02
2023-03-22T04:13:47.402Z,10.02
2023-03-22T04:15:54.178Z,10.02
2023-03-22T04:17:55.824Z,10.01
2023-03-22T04:19:57.836Z,10.00
2023-03-22T04:21:59.447Z,10.00
2023-03-22T04:24:01.450Z,10.01
2023-03-22T04:26:04.068Z,10.00
2023-03-22T04:28:07.540Z,10.00
2023-03-22T04:30:11.772Z,9.99
2023-03-22T04:32:15.363Z,9.98
2023-03-22T04:34:16.971Z,9.98
2023-03-22T04:36:20.794Z,9.98
2023-03-22T04:38:23.081Z,9.98
2023-03-22T04:40:24.903Z,9.97
2023-03-22T04:42:26.821Z,9.97
2023-03-22T04:44:28.453Z,9.95
2023-03-22T04:46:30.889Z,9.95
2023-03-22T04:48:34.629Z,9.94
2023-03-22T04:50:36.184Z,9.93
2023-03-22T04:52:37.721Z,9.92
2023-03-22T04:54:39.725Z,9.91
2023-03-22T04:56:41.739Z,9.89
2023-03-22T04:58:45.111Z,9.88
2023-03-22T05:00:48.208Z,9.86
2023-03-22T05:02:49.874Z,9.85
2023-03-22T05:04:52.883Z,9.84
2023-03-22T05:06:54.872Z,9.81
2023-03-22T05:08:56.459Z,9.82
2023-03-22T05:11:04.769Z,9.81
2023-03-22T05:13:06.287Z,9.79
2023-03-22T05:15:09.008Z,9.80
2023-03-22T05:17:10.633Z,9.79
2023-03-22T05:19:12.631Z,9.78
2023-03-22T05:21:17.418Z,9.79
2023-03-22T05:23:19.651Z,9.79
2023-03-22T05:25:21.583Z,9.79
2023-03-22T05:27:23.340Z,9.80
2023-03-22T05:29:26.254Z,9.79
2023-03-22T05:31:27.878Z,9.81
2023-03-22T05:33:29.516Z,9.80
2023-03-22T05:35:31.840Z,9.81
2023-03-22T05:37:35.307Z,9.82
2023-03-22T05:39:36.920Z,9.83
2023-03-22T05:41:39.258Z,9.83
2023-03-22T05:43:41.635Z,9.83
2023-03-22T05:45:43.203Z,9.84
2023-03-22T05:47:45.026Z,9.84
2023-03-22T05:49:46.678Z,9.83
2023-03-22T05:51:48.193Z,9.84
2023-03-22T05:53:51.613Z,9.86
2023-03-22T05:55:53.301Z,9.87
2023-03-22T05:57:55.188Z,9.87
2023-03-22T05:59:56.905Z,9.87
2023-03-22T06:01:58.544Z,9.88
2023-03-22T06:04:00.888Z,9.89
2023-03-22T06:06:02.764Z,9.91
2023-03-22T06:08:06.581Z,9.91
2023-03-22T06:10:13.806Z,9.92
2023-03-22T06:12:17.172Z,9.93
2023-03-22T06:14:18.908Z,9.94
2023-03-22T06:16:20.835Z,9.95
2023-03-22T06:18:22.979Z,9.97
2023-03-22T06:20:24.604Z,9.97
2023-03-22T06:22:28.057Z,9.99
2023-03-22T06:24:30.069Z,10.00
2023-03-22T06:26:34.664Z,10.01
2023-03-22T06:28:36.488Z,10.03
2023-03-22T06:30:38.763Z,10.03
2023-03-22T06:32:41.139Z,10.04
2023-03-22T06:34:42.873Z,10.06
2023-03-22T06:36:44.781Z,10.07
2023-03-22T06:38:46.851Z,10.11
2023-03-22T06:40:48.712Z,10.13
2023-03-22T06:42:51.933Z,10.14
2023-03-22T06:44:53.591Z,10.15
2023-03-22T06:46:55.452Z,10.18
2023-03-22T06:48:57.189Z,10.19
2023-03-22T06:50:59.155Z,10.21
2023-03-22T06:53:00.969Z,10.24
2023-03-22T06:55:03.020Z,10.26
2023-03-22T06:57:06.055Z,10.28
2023-03-22T06:59:09.072Z,10.31
2023-03-22T07:01:10.769Z,10.34
2023-03-22T07:03:12.468Z,10.35
2023-03-22T07:05:17.696Z,10.37
2023-03-22T07:07:19.278Z,10.40
2023-03-22T07:09:22.794Z,10.42
2023-03-22T07:11:24.587Z,10.45
2023-03-22T07:13:26.430Z,10.47
2023-03-22T07:15:29.772Z,10.51
2023-03-22T07:17:31.427Z,10.54
2023-03-22T07:19:33.509Z,10.57
2023-03-22T07:21:35.081Z,10.60
2023-03-22T07:23:38.682Z,10.63
2023-03-22T07:25:40.289Z,10.67
2023-03-22T07:27:41.873Z,10.73
2023-03-22T07:29:44.174Z,10.78
2023-03-22T07:31:47.644Z,10.87
2023-03-22T07:33:49.283Z,10.90
2023-03-22T07:35:50.966Z,10.96
2023-03-22T07:37:52.875Z,11.00
2023-03-22T07:39:57.833Z,11.05
2023-03-22T07:41:59.817Z,11.09
2023-03-22T07:44:15.198Z,11.14
2023-03-22T07:46:19.319Z,11.19
2023-03-22T07:48:23.477Z,11.24
2023-03-22T07:50:25.425Z,11.28
2023-03-22T07:52:27.520Z,11.34
2023-03-22T07:54:33.934Z,11.36
2023-03-22T07:56:36.235Z,11.42
2023-03-22T07:58:38.101Z,11.46
2023-03-22T08:00:41.686Z,11.51
2023-03-22T08:02:43.854Z,11.55
2023-03-22T08:04:49.646Z,11.60
2023-03-22T08:06:53.560Z,11.66
2023-03-22T08:08:55.571Z,11.69
2023-03-22T08:10:57.194Z,11.77
2023-03-22T08:12:58.828Z,11.81
2023-03-22T08:15:01.352Z,11.85
2023-03-22T08:17:03.293Z,11.89
2023-03-22T08:19:04.798Z,11.94
2023-03-22T08:21:10.914Z,11.98
2023-03-22T08:23:13.014Z,12.07
2023-03-22T08:25:15.752Z,12.14
2023-03-22T08:27:17.516Z,12.22
2023-03-22T08:29:21.252Z,12.34
2023-03-22T08:31:23.894Z,12.48
2023-03-22T08:33:28.046Z,12.61
2023-03-22T08:35:31.997Z,12.81
2023-03-22T08:37:35.435Z,12.98
2023-03-22T08:39:37.462Z,13.06
2023-03-22T08:41:39.493Z,13.11
2023-03-22T08:43:41.293Z,13.16
2023-03-22T08:45:43.489Z,13.21
2023-03-22T08:47:45.479Z,13.24
2023-03-22T08:49:47.070Z,13.29
2023-03-22T08:51:48.916Z,13.33
2023-03-22T08:53:52.179Z,13.38
2023-03-22T08:55:53.889Z,13.42
2023-03-22T08:57:55.636Z,13.43
2023-03-22T08:59:57.745Z,13.48
2023-03-22T09:01:59.892Z,13.57
2023-03-22T09:04:02.204Z,13.62
2023-03-22T09:06:04.531Z,13.72
2023-03-22T09:08:06.851Z,13.79
2023-03-22T09:10:11.152Z,13.85
2023-03-22T09:12:12.913Z,13.87
2023-03-22T09:14:14.828Z,13.91
2023-03-22T09:16:17.530Z,13.92
2023-03-22T09:18:19.287Z,13.94
2023-03-22T09:20:20.909Z,13.95
2023-03-22T09:22:23.192Z,13.92
2023-03-22T09:24:26.040Z,13.94
2023-03-22T09:26:29.022Z,13.94
2023-03-22T09:28:31.176Z,13.94
2023-03-22T09:30:33.515Z,13.96
2023-03-22T09:32:35.424Z,13.95
2023-03-22T09:34:37.301Z,13.98
2023-03-22T09:36:38.940Z,13.98
2023-03-22T09:38:40.942Z,14.02
2023-03-22T09:40:50.687Z,14.03
2023-03-22T09:42:57.808Z,14.03
2023-03-22T09:45:02.648Z,14.03
2023-03-22T09:47:07.677Z,14.04
2023-03-22T09:49:14.703Z,14.04
2023-03-22T09:51:29.738Z,14.02
2023-03-22T09:53:32.717Z,14.02
2023-03-22T09:55:40.606Z,14.02
2023-03-22T09:57:49.363Z,14.00
2023-03-22T10:00:00.912Z,14.01
2023-03-22T10:02:12.478Z,14.00
2023-03-22T10:04:44.378Z,14.03
2023-03-22T10:06:50.680Z,14.04
2023-03-22T10:08:59.559Z,14.06
2023-03-22T10:11:01.731Z,14.07
2023-03-22T10:13:13.077Z,14.10
2023-03-22T10:15:20.780Z,14.10
2023-03-22T10:17:27.215Z,14.13
2023-03-22T10:19:33.644Z,14.17
2023-03-22T10:21:36.648Z,14.19
2023-03-22T10:23:44.147Z,14.22
2023-03-22T10:25:47.327Z,14.24
2023-03-22T10:27:52.202Z,14.28
2023-03-22T10:29:59.463Z,14.31
2023-03-22T10:32:14.716Z,14.36
2023-03-22T10:34:21.607Z,14.36
2023-03-22T10:36:28.803Z,14.42
2023-03-22T10:38:32.454Z,14.47
2023-03-22T10:40:36.941Z,14.52
2023-03-22T10:42:44.009Z,14.56
2023-03-22T10:44:52.492Z,14.65
2023-03-22T10:46:59.510Z,14.68
2023-03-22T10:49:04.956Z,14.75
2023-03-22T10:51:07.779Z,14.78
2023-03-22T10:53:26.658Z,14.81
2023-03-22T10:55:29.178Z,14.86
2023-03-22T10:57:31.352Z,14.91
2023-03-22T10:59:45.306Z,15.01
2023-03-22T11:01:51.291Z,15.06
2023-03-22T11:03:57.560Z,15.13
2023-03-22T11:06:03.564Z,15.21
2023-03-22T11:08:05.212Z,15.27
2023-03-22T11:10:19.268Z,15.33
2023-03-22T11:12:20.921Z,15.35
2023-03-22T11:14:28.033Z,15.37
2023-03-22T11:16:31.653Z,15.42
2023-03-22T11:18:35.251Z,15.44
2023-03-22T11:20:41.244Z,15.47
2023-03-22T11:22:47.187Z,15.51
2023-03-22T11:24:48.986Z,15.52
2023-03-22T11:27:03.072Z,15.56
2023-03-22T11:29:08.520Z,15.57
2023-03-22T11:31:12.029Z,15.56
2023-03-22T11:33:20.134Z,15.57
2023-03-22T11:35:23.585Z,15.57
2023-03-22T11:37:25.750Z,15.57
2023-03-22T11:39:30.260Z,15.54
2023-03-22T11:41:36.597Z,15.57
2023-03-22T11:43:41.601Z,15.55
2023-03-22T11:45:45.019Z,15.56
2023-03-22T11:47:46.778Z,15.56
2023-03-22T11:49:52.335Z,15.62
2023-03-22T11:51:55.887Z,15.65
2023-03-22T11:54:07.653Z,15.70
2023-03-22T11:56:13.304Z,15.77
2023-03-22T11:58:26.160Z,15.84
2023-03-22T12:00:30.783Z,15.90
2023-03-22T12:02:38.601Z,15.97
2023-03-22T12:04:44.690Z,16.01
2023-03-22T12:06:47.146Z,16.03
2023-03-22T12:08:54.254Z,16.09
2023-03-22T12:11:01.844Z,16.11
2023-03-22T12:13:11.045Z,16.13
2023-03-22T12:15:17.935Z,16.13
2023-03-22T12:17:28.723Z,16.13
2023-03-22T12:19:44.433Z,16.12
2023-03-22T12:21:48.757Z,16.08
2023-03-22T12:23:50.639Z,16.09
2023-03-22T12:25:58.246Z,16.06
2023-03-22T12:28:05.577Z,16.08
2023-03-22T12:30:14.988Z,16.12
2023-03-22T12:32:21.839Z,16.13
2023-03-22T12:34:33.011Z,16.14
2023-03-22T12:36:40.429Z,16.18
2023-03-22T12:38:47.367Z,16.23
2023-03-22T12:40:52.694Z,16.27
2023-03-22T12:43:03.825Z,16.31
2023-03-22T12:45:15.300Z,16.39
2023-03-22T12:47:24.661Z,16.44
2023-03-22T12:49:32.110Z,16.49
2023-03-22T12:51:33.931Z,16.53
2023-03-22T12:53:38.288Z,16.59
2023-03-22T12:55:41.797Z,16.60
2023-03-22T12:57:43.621Z,16.64
2023-03-22T12:59:48.972Z,16.65
2023-03-22T13:01:58.168Z,16.65
2023-03-22T13:04:00.140Z,16.65
2023-03-22T13:06:06.261Z,16.68
2023-03-22T13:08:08.657Z,16.69
2023-03-22T13:10:47.589Z,16.74
2023-03-22T13:13:09.800Z,16.75
2023-03-22T13:15:41.181Z,16.74
2023-03-22T13:17:45.886Z,16.74
2023-03-22T13:19:53.404Z,16.74
2023-03-22T13:22:17.916Z,16.74
2023-03-22T13:24:22.335Z,16.73
2023-03-22T13:26:32.510Z,16.74
2023-03-22T13:28:34.171Z,16.75
2023-03-22T13:30:47.077Z,16.79
2023-03-22T13:32:54.633Z,16.81
2023-03-22T13:34:57.990Z,16.84
2023-03-22T13:37:00.019Z,16.86
2023-03-22T13:39:09.606Z,16.89
2023-03-22T13:41:22.050Z,16.89
2023-03-22T13:43:28.941Z,16.90
2023-03-22T13:45:33.087Z,16.91
2023-03-22T13:47:37.032Z,16.89
2023-03-22T13:49:49.453Z,16.90
2023-03-22T13:51:52.190Z,16.89
2023-03-22T13:53:58.794Z,16.89
2023-03-22T13:56:05.077Z,16.90
2023-03-22T13:58:11.206Z,16.89
2023-03-22T14:00:34.362Z,16.89
2023-03-22T14:02:41.594Z,16.90
2023-03-22T14:04:47.498Z,16.88
2023-03-22T14:06:52.871Z,16.88
2023-03-22T14:09:00.734Z,16.87
2023-03-22T14:11:10.782Z,16.85
2023-03-22T14:13:19.113Z,16.84
2023-03-22T14:15:25.086Z,16.83
2023-03-22T14:17:35.858Z,16.84
2023-03-22T14:19:38.726Z,16.83
2023-03-22T14:21:47.408Z,16.82
